CYVR

Vancouver International Airport

ICAO Code CYVR
IATA Code YVR
Name Vancouver International Airport
Location Vancouver, British Columbia, CA
Elevation 14 Feet / 4.3 Meters
Latitude 49.19390106
Longitude -123.18399811
METAR CYVR 012200Z 21006KT 10SM FEW160 SCT200 26/19 A3004 RMK AS2CS2 FU ALF SLP175 DENSITY ALT 1200FT
Extra information Display Charts and CFS
Display NOTAMS
Runway Length Width Surface Elevation
08L 9940 ft 200 ft CON 13 ft
08R 11500 ft 200 ft ASP 9 ft
13 7300 ft 200 ft CON 8 ft
XX 3500 ft 75 ft CON 8 ft
26R 9940 ft 200 ft CON 9 ft
26L 11500 ft 200 ft ASP 6 ft
31 7300 ft 200 ft CON 7 ft
26A 3500 ft 75 ft CON 8 ft